Time;durP1;ratioP1;P1;durP2;ratioP2;P2;SDS_P1;SDS_P2;PMS_P1;PMS_P2;Temp;Humidity;BMP_temperature;BMP_pressure;BME280_temperature;BME280_humidity;BME280_pressure;Samples;Min_cycle;Max_cycle;Signal;HPM_P1;HPM_P2
2022/03/13 00:00:11;;;;;;;12.60;7.57;;;5.50;97.80;;;;;;5115471;28;20096;-86
2022/03/13 00:02:39;;;;;;;14.85;8.20;;;5.50;97.70;;;;;;5070252;28;20083;-86
2022/03/13 00:05:16;;;;;;;13.80;8.10;;;5.40;97.60;;;;;;5090641;28;20484;-87
2022/03/13 00:07:43;;;;;;;13.20;8.05;;;5.40;97.80;;;;;;5091705;28;20472;-87
2022/03/13 00:10:09;;;;;;;11.98;8.68;;;5.40;97.70;;;;;;5076310;28;20035;-87
2022/03/13 00:12:35;;;;;;;11.55;7.72;;;5.30;98.20;;;;;;5094075;28;20070;-87
2022/03/13 00:15:03;;;;;;;;;;;5.50;97.90;;;;;;5062548;28;20085;-86
2022/03/13 00:17:29;;;;;;;14.88;7.85;;;5.30;98.80;;;;;;5092141;28;20229;-87
2022/03/13 00:20:00;;;;;;;;;;;5.50;98.20;;;;;;5091564;28;20175;-85
2022/03/13 00:22:27;;;;;;;15.23;7.63;;;5.20;99.90;;;;;;5081732;28;19924;-86
2022/03/13 00:24:54;;;;;;;13.48;7.82;;;5.10;98.50;;;;;;5093858;28;20069;-87
2022/03/13 00:27:20;;;;;;;14.20;8.10;;;5.10;98.20;;;;;;5091495;28;20116;-87
2022/03/13 00:29:46;;;;;;;14.45;7.50;;;5.00;98.60;;;;;;5094979;28;20491;-85
2022/03/13 00:32:12;;;;;;;13.95;8.73;;;5.00;98.50;;;;;;5104671;28;20043;-89
2022/03/13 00:34:38;;;;;;;;;;;4.90;98.60;;;;;;5095573;28;20040;-86
2022/03/13 00:37:04;;;;;;;15.63;8.02;;;4.90;99.90;;;;;;5080849;28;19959;-89
2022/03/13 00:39:30;;;;;;;12.50;8.05;;;4.90;99.30;;;;;;5078579;28;20460;-91
2022/03/13 00:41:56;;;;;;;11.25;7.78;;;4.90;98.80;;;;;;5062456;28;20089;-91
2022/03/13 00:44:22;;;;;;;;;;;5.00;99.10;;;;;;5077105;28;20374;-87
2022/03/13 00:46:48;;;;;;;14.48;7.05;;;5.10;99.90;;;;;;5090743;28;19946;-90
2022/03/13 00:49:13;;;;;;;16.27;8.60;;;5.20;99.90;;;;;;5097818;28;20043;-89
2022/03/13 00:51:39;;;;;;;13.77;8.52;;;5.30;99.70;;;;;;5067017;28;20074;-90
2022/03/13 00:54:05;;;;;;;21.15;8.40;;;5.50;99.40;;;;;;5095440;28;20495;-89
2022/03/13 00:56:31;;;;;;;11.80;7.43;;;6.50;99.90;;;;;;5085612;28;20048;-91
2022/03/13 00:58:58;;;;;;;14.80;8.00;;;5.80;99.90;;;;;;5091013;28;20062;-88
2022/03/13 01:01:24;;;;;;;12.20;7.85;;;5.50;99.30;;;;;;5083962;28;20043;-90
2022/03/13 01:03:52;;;;;;;13.10;7.50;;;6.50;99.70;;;;;;5100942;28;20507;-91
2022/03/13 01:06:20;;;;;;;14.57;7.88;;;5.70;99.40;;;;;;5062804;28;20039;-88
2022/03/13 01:08:47;;;;;;;16.60;8.70;;;5.70;99.30;;;;;;5098475;28;20046;-88
2022/03/13 01:11:15;;;;;;;14.45;8.48;;;5.90;99.20;;;;;;5088967;28;20123;-89
2022/03/13 01:13:41;;;;;;;14.95;9.38;;;5.70;99.30;;;;;;5068474;28;20092;-91
2022/03/13 01:16:15;;;;;;;14.20;8.48;;;5.70;99.40;;;;;;5076271;28;20036;-87
2022/03/13 01:18:51;;;;;;;12.48;7.53;;;5.70;99.60;;;;;;5086872;28;20122;-87
2022/03/13 01:21:17;;;;;;;12.98;8.55;;;5.60;99.70;;;;;;5089635;28;20107;-89
2022/03/13 01:24:01;;;;;;;15.20;8.93;;;5.70;99.90;;;;;;5086254;28;20411;-90
2022/03/13 01:26:34;;;;;;;17.23;8.63;;;5.60;99.90;;;;;;5103308;28;20039;-88
2022/03/13 01:29:01;;;;;;;14.35;8.60;;;5.60;99.90;;;;;;5086942;28;20458;-86
2022/03/13 01:31:33;;;;;;;11.40;8.25;;;5.60;99.90;;;;;;5097517;28;20551;-89
2022/03/13 01:34:00;;;;;;;21.35;9.70;;;5.70;99.90;;;;;;5104466;28;20036;-89
2022/03/13 01:36:26;;;;;;;14.10;7.65;;;5.60;99.90;;;;;;5072098;28;20054;-88
2022/03/13 01:38:55;;;;;;;12.93;8.38;;;5.60;99.90;;;;;;5096626;28;20074;-87
2022/03/13 01:41:22;;;;;;;14.90;9.02;;;5.60;99.90;;;;;;5097929;28;20070;-90
2022/03/13 01:43:48;;;;;;;18.80;9.77;;;6.50;99.90;;;;;;5098039;28;20091;-89
2022/03/13 01:46:15;;;;;;;11.77;7.90;;;5.80;99.90;;;;;;5070873;28;20571;-87
2022/03/13 01:48:57;;;;;;;14.15;8.30;;;5.60;99.90;;;;;;5081548;28;20096;-88
2022/03/13 01:51:25;;;;;;;16.60;8.73;;;5.60;99.90;;;;;;5086491;28;20039;-88
2022/03/13 01:53:54;;;;;;;16.80;9.57;;;6.00;99.90;;;;;;5083708;28;20104;-87
2022/03/13 01:56:21;;;;;;;21.17;8.55;;;6.30;99.90;;;;;;5098715;28;20043;-89
2022/03/13 01:58:54;;;;;;;22.90;8.98;;;5.80;99.90;;;;;;5081664;28;20043;-90
2022/03/13 02:01:22;;;;;;;14.38;8.23;;;5.90;99.90;;;;;;5092464;28;20047;-88
2022/03/13 02:03:48;;;;;;;16.02;8.18;;;5.90;99.90;;;;;;5080122;28;20392;-90
2022/03/13 02:06:15;;;;;;;12.60;7.97;;;6.20;99.90;;;;;;5051548;28;20044;-88
2022/03/13 02:08:43;;;;;;;16.45;9.07;;;6.20;99.90;;;;;;5096429;27;20062;-88
2022/03/13 02:11:09;;;;;;;14.90;9.10;;;6.10;99.90;;;;;;5101723;28;20035;-90
2022/03/13 02:13:36;;;;;;;15.02;9.38;;;6.40;99.90;;;;;;5079331;28;20048;-88
2022/03/13 02:16:02;;;;;;;13.95;8.68;;;6.20;99.90;;;;;;5097299;28;20088;-88
2022/03/13 02:18:28;;;;;;;12.85;8.85;;;6.20;99.90;;;;;;5084560;28;20490;-88
2022/03/13 02:20:54;;;;;;;13.05;8.50;;;6.20;99.90;;;;;;5102926;28;20047;-89
2022/03/13 02:23:28;;;;;;;16.02;9.02;;;6.20;99.90;;;;;;5098361;28;20032;-89
2022/03/13 02:26:01;;;;;;;23.83;9.65;;;6.20;99.90;;;;;;5096724;28;20114;-88
2022/03/13 02:28:30;;;;;;;15.85;8.77;;;6.30;99.90;;;;;;5096826;27;20391;-90
2022/03/13 02:31:17;;;;;;;12.63;8.68;;;6.40;99.90;;;;;;5109667;28;20043;-89
2022/03/13 02:33:43;;;;;;;18.45;8.32;;;6.40;99.90;;;;;;5074988;27;20036;-90
2022/03/13 02:36:38;;;;;;;14.80;8.73;;;6.40;99.90;;;;;;5099798;28;20042;-89
2022/03/13 02:39:05;;;;;;;13.93;8.85;;;6.40;99.90;;;;;;5086847;27;20130;-91
2022/03/13 02:41:32;;;;;;;14.65;8.90;;;6.70;99.90;;;;;;5107820;28;20063;-89
2022/03/13 02:43:59;;;;;;;19.75;8.88;;;6.50;99.90;;;;;;5097868;28;20081;-92
2022/03/13 02:46:45;;;;;;;16.35;9.02;;;6.40;99.90;;;;;;5065210;28;20404;-90
2022/03/13 02:49:15;;;;;;;15.23;8.35;;;6.40;99.90;;;;;;5092455;28;20036;-89
2022/03/13 02:51:42;;;;;;;15.50;8.85;;;6.50;99.90;;;;;;5112904;28;20040;-91
2022/03/13 02:54:08;;;;;;;14.20;8.93;;;6.80;99.90;;;;;;5104808;28;20385;-87
2022/03/13 02:56:34;;;;;;;16.40;8.75;;;6.30;99.90;;;;;;5096809;27;20043;-87
2022/03/13 02:59:00;;;;;;;15.40;9.27;;;6.30;99.90;;;;;;5119448;28;20065;-87
2022/03/13 03:01:26;;;;;;;15.77;8.18;;;6.30;99.90;;;;;;5104374;28;20103;-90
2022/03/13 03:04:00;;;;;;;17.70;9.05;;;6.30;99.90;;;;;;5097370;28;20039;-87
2022/03/13 03:06:29;;;;;;;12.55;9.15;;;6.20;99.90;;;;;;5094450;28;20046;-88
2022/03/13 03:08:55;;;;;;;16.45;9.07;;;7.00;99.90;;;;;;5082388;28;20385;-87
2022/03/13 03:11:21;;;;;;;14.43;9.02;;;6.70;99.90;;;;;;5086382;28;20113;-90
2022/03/13 03:13:47;;;;;;;14.23;8.27;;;6.20;99.90;;;;;;5078805;27;20040;-87
2022/03/13 03:16:13;;;;;;;14.18;8.77;;;6.20;99.90;;;;;;5083344;28;20514;-88
2022/03/13 03:18:39;;;;;;;18.80;10.30;;;6.20;99.90;;;;;;5078120;28;20036;-89
2022/03/13 03:21:04;;;;;;;14.48;9.52;;;6.40;99.90;;;;;;5100503;28;20043;-90
2022/03/13 03:23:30;;;;;;;14.68;9.05;;;6.10;99.90;;;;;;5078281;28;20492;-91
2022/03/13 03:25:56;;;;;;;16.45;9.32;;;6.10;99.90;;;;;;5102837;28;20392;-88
2022/03/13 03:28:22;;;;;;;13.95;8.80;;;6.30;99.90;;;;;;5077259;28;20388;-90
2022/03/13 03:30:48;;;;;;;;;;;6.00;99.90;;;;;;5078763;28;20036;-88
2022/03/13 03:33:14;;;;;;;15.80;8.70;;;6.00;99.90;;;;;;5077133;28;19931;-89
2022/03/13 03:35:39;;;;;;;15.88;9.02;;;6.00;99.90;;;;;;5069426;28;20070;-88
2022/03/13 03:38:05;;;;;;;18.05;9.32;;;6.00;99.90;;;;;;5074789;28;20096;-90
2022/03/13 03:40:33;;;;;;;16.90;8.88;;;6.80;99.90;;;;;;5078335;28;20047;-88
2022/03/13 03:43:01;;;;;;;18.27;9.50;;;5.90;99.90;;;;;;5077937;28;20366;-89
2022/03/13 03:45:27;;;;;;;20.88;9.73;;;6.50;99.90;;;;;;5101350;28;20032;-89
2022/03/13 03:47:53;;;;;;;15.52;9.18;;;7.00;99.90;;;;;;5095038;28;20145;-91
2022/03/13 03:50:19;;;;;;;15.07;9.23;;;5.80;99.90;;;;;;5062832;28;20032;-87
2022/03/13 03:52:45;;;;;;;16.60;8.35;;;5.80;99.90;;;;;;5080198;28;20088;-88
2022/03/13 03:55:12;;;;;;;15.93;9.13;;;5.80;99.90;;;;;;5077917;28;20068;-89
2022/03/13 03:57:37;;;;;;;;;;;5.80;99.90;;;;;;5078718;28;20035;-88
2022/03/13 04:00:05;;;;;;;17.88;9.18;;;5.80;99.90;;;;;;5079842;28;20387;-90
2022/03/13 04:02:32;;;;;;;16.80;8.77;;;5.70;99.90;;;;;;5102273;28;20052;-90
2022/03/13 04:04:58;;;;;;;16.35;9.57;;;5.70;99.90;;;;;;5072791;28;20048;-90
2022/03/13 04:07:24;;;;;;;14.48;8.85;;;6.00;99.90;;;;;;5054533;28;20040;-88
2022/03/13 04:09:49;;;;;;;18.85;9.32;;;5.50;99.90;;;;;;5072168;28;20051;-88
2022/03/13 04:12:17;;;;;;;17.10;9.45;;;5.50;99.90;;;;;;5054290;28;20044;-89
2022/03/13 04:14:43;;;;;;;15.40;8.85;;;5.70;99.90;;;;;;5053947;28;20052;-88
2022/03/13 04:17:09;;;;;;;17.20;10.48;;;5.50;99.90;;;;;;5091132;28;20510;-88
2022/03/13 04:19:35;;;;;;;14.50;8.90;;;5.40;99.90;;;;;;5090081;28;20126;-88
2022/03/13 04:22:01;;;;;;;;;;;5.50;99.90;;;;;;5096857;28;20032;-88
2022/03/13 04:24:29;;;;;;;15.32;9.40;;;5.30;99.90;;;;;;5116349;28;19917;-90
2022/03/13 04:26:56;;;;;;;17.02;9.85;;;5.10;99.90;;;;;;5068731;28;20036;-87
2022/03/13 04:29:23;;;;;;;14.68;8.18;;;5.10;99.90;;;;;;5100508;28;20111;-90
2022/03/13 04:31:50;;;;;;;17.67;9.38;;;5.40;99.90;;;;;;5083701;28;20044;-90
2022/03/13 04:34:17;;;;;;;15.10;9.20;;;5.70;99.90;;;;;;5094131;28;20119;-91
2022/03/13 04:36:44;;;;;;;14.95;9.23;;;4.90;99.90;;;;;;5068786;28;20041;-89
2022/03/13 04:39:10;;;;;;;15.23;8.85;;;4.90;99.90;;;;;;5091834;28;20037;-89
2022/03/13 04:41:38;;;;;;;;;;;4.90;99.90;;;;;;5077633;28;20410;-88
2022/03/13 04:44:05;;;;;;;26.52;13.43;;;4.90;99.90;;;;;;5110854;28;19946;-90
2022/03/13 04:46:32;;;;;;;27.52;16.13;;;4.80;99.90;;;;;;5093628;28;20039;-87
2022/03/13 04:48:58;;;;;;;23.40;13.80;;;5.10;99.90;;;;;;5076428;28;20407;-89
2022/03/13 04:51:24;;;;;;;;;;;4.80;99.90;;;;;;5077528;28;20512;-89
2022/03/13 04:53:50;;;;;;;29.83;22.33;;;4.80;99.90;;;;;;5100866;28;19934;-88
2022/03/13 04:56:16;;;;;;;21.38;13.40;;;4.80;99.90;;;;;;5069363;28;20097;-86
2022/03/13 04:58:41;;;;;;;18.70;11.15;;;5.70;99.90;;;;;;5094732;28;20043;-90
2022/03/13 05:01:07;;;;;;;17.88;12.63;;;4.70;99.90;;;;;;5076361;28;20050;-87
2022/03/13 05:03:33;;;;;;;17.05;11.68;;;4.80;99.90;;;;;;5058377;28;20393;-87
2022/03/13 05:06:00;;;;;;;21.67;12.07;;;4.90;99.90;;;;;;5060471;28;20115;-88
2022/03/13 05:08:26;;;;;;;16.25;10.25;;;4.80;99.90;;;;;;5090644;28;20068;-89
2022/03/13 05:10:52;;;;;;;17.05;9.82;;;4.80;99.90;;;;;;5094127;28;20036;-88
2022/03/13 05:13:19;;;;;;;19.40;10.85;;;5.60;99.90;;;;;;5096936;28;20043;-88
2022/03/13 05:15:46;;;;;;;16.58;9.93;;;4.80;99.90;;;;;;5077616;28;20396;-90
2022/03/13 05:18:12;;;;;;;15.00;10.20;;;5.00;99.90;;;;;;5077053;28;20036;-90
2022/03/13 05:20:39;;;;;;;13.27;8.75;;;4.80;99.90;;;;;;5093839;28;20115;-89
2022/03/13 05:23:07;;;;;;;14.98;9.75;;;4.70;99.90;;;;;;5076462;28;20541;-91
2022/03/13 05:25:35;;;;;;;16.90;8.52;;;4.80;99.90;;;;;;5078001;28;20373;-88
2022/03/13 05:28:01;;;;;;;13.18;8.75;;;5.70;99.90;;;;;;5103911;28;20039;-89
2022/03/13 05:30:27;;;;;;;14.02;9.18;;;5.00;99.90;;;;;;5091788;28;20044;-88
2022/03/13 05:32:53;;;;;;;;;;;4.70;99.90;;;;;;5098793;28;20150;-88
2022/03/13 05:35:19;;;;;;;16.88;9.10;;;4.60;99.90;;;;;;5094349;28;19919;-88
2022/03/13 05:37:45;;;;;;;11.50;8.30;;;4.60;99.90;;;;;;5075298;28;20051;-90
2022/03/13 05:40:15;;;;;;;;;;;4.60;99.90;;;;;;5091731;28;20057;-89
2022/03/13 05:42:46;;;;;;;18.50;9.60;;;4.60;99.90;;;;;;5074254;28;19924;-89
2022/03/13 05:45:15;;;;;;;15.68;8.32;;;4.50;99.90;;;;;;5093527;28;20044;-90
2022/03/13 05:47:48;;;;;;;14.55;8.27;;;4.50;99.90;;;;;;5077369;28;20036;-88
2022/03/13 05:50:16;;;;;;;16.40;8.30;;;4.60;99.90;;;;;;5063455;28;20040;-88
2022/03/13 05:52:43;;;;;;;15.18;9.35;;;4.50;99.90;;;;;;5089158;28;20041;-88
2022/03/13 05:55:10;;;;;;;13.43;8.07;;;5.20;99.90;;;;;;5087506;28;20047;-89
2022/03/13 05:57:36;;;;;;;16.75;8.82;;;4.50;99.90;;;;;;5107472;28;20042;-89
2022/03/13 06:00:06;;;;;;;;;;;4.60;99.90;;;;;;5083971;28;20040;-89
2022/03/13 06:02:32;;;;;;;13.40;8.05;;;4.70;99.90;;;;;;5097474;28;19919;-87
2022/03/13 06:04:59;;;;;;;;;;;5.30;99.90;;;;;;5098863;28;20099;-90
2022/03/13 06:07:24;;;;;;;13.13;8.65;;;4.80;99.90;;;;;;5062601;28;19916;-90
2022/03/13 06:09:52;;;;;;;12.88;7.45;;;5.50;99.90;;;;;;5083656;28;20051;-87
2022/03/13 06:12:18;;;;;;;12.68;8.10;;;5.30;99.90;;;;;;5089086;28;20036;-86
2022/03/13 06:14:44;;;;;;;11.80;8.13;;;4.90;99.90;;;;;;5048514;28;20501;-87
2022/03/13 06:17:09;;;;;;;16.48;8.75;;;5.10;99.90;;;;;;5066875;28;20157;-90
2022/03/13 06:19:39;;;;;;;14.77;8.77;;;5.90;99.90;;;;;;5039246;28;20051;-89
2022/03/13 06:22:05;;;;;;;15.63;8.55;;;5.10;99.90;;;;;;5060430;28;20225;-89
2022/03/13 06:24:32;;;;;;;13.15;8.40;;;5.10;99.90;;;;;;5062656;28;20043;-87
2022/03/13 06:26:58;;;;;;;14.95;7.70;;;5.20;99.90;;;;;;5093109;28;20111;-91
2022/03/13 06:29:24;;;;;;;13.80;7.85;;;5.20;99.90;;;;;;5072041;28;20206;-90
2022/03/13 06:31:52;;;;;;;13.73;8.27;;;5.20;99.90;;;;;;5074617;28;20044;-90
2022/03/13 06:34:18;;;;;;;12.80;8.98;;;5.30;99.90;;;;;;5056215;28;20044;-90
2022/03/13 06:36:44;;;;;;;11.85;7.60;;;5.20;99.90;;;;;;5091370;28;20083;-89
2022/03/13 06:39:10;;;;;;;13.52;7.88;;;5.30;99.90;;;;;;5056294;28;20127;-91
2022/03/13 06:41:36;;;;;;;15.52;7.88;;;5.30;99.90;;;;;;5087383;28;20094;-87
2022/03/13 06:44:08;;;;;;;11.95;7.85;;;5.30;99.90;;;;;;5074354;28;20074;-88
2022/03/13 06:46:34;;;;;;;10.32;7.32;;;5.30;99.90;;;;;;5079589;28;20040;-88
2022/03/13 06:49:01;;;;;;;12.40;8.32;;;5.60;99.90;;;;;;5087123;28;20780;-88
2022/03/13 06:51:27;;;;;;;14.48;7.97;;;5.30;99.90;;;;;;5083061;28;20032;-89
2022/03/13 06:53:53;;;;;;;17.83;8.90;;;5.30;99.90;;;;;;5065079;28;20028;-88
2022/03/13 06:56:18;;;;;;;14.93;8.07;;;5.30;99.90;;;;;;5065615;28;20032;-88
2022/03/13 06:58:44;;;;;;;11.90;7.80;;;5.30;99.90;;;;;;5057256;28;20036;-88
2022/03/13 07:01:10;;;;;;;14.02;7.72;;;5.40;99.90;;;;;;5088406;28;20047;-88
2022/03/13 07:03:36;;;;;;;11.13;7.88;;;5.40;99.90;;;;;;5093573;28;20059;-86
2022/03/13 07:06:04;;;;;;;;;;;5.40;99.90;;;;;;5085037;28;20037;-87
2022/03/13 07:08:33;;;;;;;12.10;8.13;;;5.40;99.90;;;;;;5097726;28;19945;-86
2022/03/13 07:11:01;;;;;;;11.23;7.70;;;5.40;99.90;;;;;;5059734;28;20509;-88
2022/03/13 07:13:32;;;;;;;11.25;7.93;;;5.40;99.90;;;;;;5080253;28;20047;-88
2022/03/13 07:16:03;;;;;;;13.18;7.15;;;5.50;99.90;;;;;;5070722;28;20062;-88
2022/03/13 07:18:32;;;;;;;14.25;8.85;;;5.50;99.90;;;;;;5066533;28;20055;-87
2022/03/13 07:20:58;;;;;;;12.90;8.10;;;5.50;99.90;;;;;;5053414;28;20051;-88
2022/03/13 07:23:24;;;;;;;14.48;7.35;;;5.60;99.90;;;;;;5071803;28;20032;-89
2022/03/13 07:25:51;;;;;;;12.70;7.72;;;6.30;99.90;;;;;;5066296;28;20039;-88
2022/03/13 07:28:17;;;;;;;14.77;8.40;;;5.70;99.90;;;;;;5068796;28;20433;-89
2022/03/13 07:30:44;;;;;;;11.98;7.30;;;5.70;99.90;;;;;;5090181;28;20032;-87
2022/03/13 07:33:10;;;;;;;13.15;8.20;;;5.80;99.90;;;;;;5090505;28;20090;-86
2022/03/13 07:35:37;;;;;;;12.27;7.95;;;5.80;99.90;;;;;;5074504;28;20039;-87
2022/03/13 07:38:03;;;;;;;12.40;7.88;;;6.20;99.90;;;;;;5072551;28;20036;-89
2022/03/13 07:40:29;;;;;;;;;;;5.90;99.90;;;;;;5086684;28;20116;-89
2022/03/13 07:42:55;;;;;;;12.10;8.40;;;6.00;99.90;;;;;;5090599;28;19920;-89
2022/03/13 07:45:21;;;;;;;13.18;7.85;;;6.20;99.90;;;;;;5071116;28;20039;-85
2022/03/13 07:47:46;;;;;;;15.40;7.70;;;6.30;99.90;;;;;;5067037;28;20037;-83
2022/03/13 07:50:12;;;;;;;13.43;8.30;;;6.50;99.90;;;;;;5105870;28;20057;-82
2022/03/13 07:52:38;;;;;;;12.40;7.78;;;6.50;99.90;;;;;;5090613;28;20040;-86
2022/03/13 07:55:05;;;;;;;13.35;7.80;;;6.60;99.90;;;;;;5089806;28;20105;-84
2022/03/13 07:57:31;;;;;;;15.20;8.70;;;6.80;99.90;;;;;;5072974;28;20048;-85
2022/03/13 07:59:56;;;;;;;;;;;7.60;99.90;;;;;;5089924;28;20040;-87
2022/03/13 08:02:22;;;;;;;13.55;7.60;;;7.00;99.90;;;;;;5069805;28;19927;-85
2022/03/13 08:04:48;;;;;;;13.07;7.75;;;7.10;99.90;;;;;;5071076;28;20040;-88
2022/03/13 08:07:13;;;;;;;16.25;7.95;;;7.30;99.90;;;;;;5038162;28;20094;-88
2022/03/13 08:09:39;;;;;;;12.70;7.38;;;7.40;99.90;;;;;;5071883;28;20045;-83
2022/03/13 08:12:06;;;;;;;12.65;7.22;;;7.50;99.90;;;;;;5069885;28;20119;-84
2022/03/13 08:14:32;;;;;;;13.38;7.40;;;7.60;99.90;;;;;;5036906;28;20041;-83
2022/03/13 08:16:57;;;;;;;10.45;7.53;;;7.70;99.90;;;;;;5072825;28;20082;-84
2022/03/13 08:19:24;;;;;;;16.50;7.28;;;7.80;99.90;;;;;;5052481;28;20041;-85
2022/03/13 08:21:49;;;;;;;12.38;7.50;;;8.10;99.90;;;;;;5052016;28;20094;-83
2022/03/13 08:24:17;;;;;;;14.23;7.25;;;8.10;99.90;;;;;;5069632;28;20489;-85
2022/03/13 08:26:43;;;;;;;12.35;7.85;;;8.30;99.90;;;;;;5069873;28;20044;-85
2022/03/13 08:29:10;;;;;;;12.70;8.35;;;8.40;99.90;;;;;;5055304;28;20485;-85
2022/03/13 08:31:37;;;;;;;12.50;7.00;;;8.50;99.90;;;;;;5069761;28;20090;-84
2022/03/13 08:34:07;;;;;;;12.32;7.55;;;8.70;99.70;;;;;;5052176;28;20071;-85
2022/03/13 08:36:34;;;;;;;14.45;7.35;;;8.70;99.60;;;;;;5040757;28;20539;-83
2022/03/13 08:39:00;;;;;;;11.65;7.50;;;8.80;99.50;;;;;;5050213;28;20099;-82
2022/03/13 08:41:26;;;;;;;14.20;8.27;;;8.90;99.50;;;;;;5069055;28;20041;-83
2022/03/13 08:43:52;;;;;;;10.43;7.07;;;9.00;99.00;;;;;;5067731;28;20074;-82
2022/03/13 08:46:18;;;;;;;13.00;6.97;;;9.10;98.90;;;;;;5045555;28;20038;-83
2022/03/13 08:48:43;;;;;;;11.93;7.65;;;9.20;97.80;;;;;;5067394;28;20439;-83
2022/03/13 08:51:12;;;;;;;12.52;8.10;;;9.30;98.40;;;;;;5052738;28;20079;-84
2022/03/13 08:53:38;;;;;;;11.75;7.60;;;9.50;98.20;;;;;;5052917;28;20036;-83
2022/03/13 08:56:04;;;;;;;9.88;7.03;;;9.60;96.10;;;;;;5045947;28;20063;-84
2022/03/13 08:58:29;;;;;;;12.55;7.22;;;9.60;94.10;;;;;;5068734;28;20033;-83
2022/03/13 09:00:56;;;;;;;12.23;6.68;;;9.70;95.50;;;;;;5051221;28;20029;-83
2022/03/13 09:03:22;;;;;;;12.63;7.38;;;9.80;95.60;;;;;;5065115;28;20040;-84
2022/03/13 09:05:48;;;;;;;11.27;6.97;;;9.90;95.20;;;;;;5067009;28;20044;-82
2022/03/13 09:08:14;;;;;;;;;;;9.90;94.90;;;;;;5056833;28;20531;-84
2022/03/13 09:10:40;;;;;;;12.77;6.80;;;9.90;93.50;;;;;;5075207;28;19920;-82
2022/03/13 09:13:06;;;;;;;15.18;7.10;;;9.90;94.50;;;;;;5091768;28;20052;-82
2022/03/13 09:15:32;;;;;;;11.63;7.07;;;9.80;93.50;;;;;;5075737;28;20051;-84
2022/03/13 09:18:02;;;;;;;10.13;6.75;;;9.70;93.90;;;;;;5088688;28;20115;-84
2022/03/13 09:20:28;;;;;;;13.27;7.00;;;9.70;94.10;;;;;;5067491;28;20040;-82
2022/03/13 09:22:54;;;;;;;;;;;9.70;93.70;;;;;;5097430;28;20040;-84
2022/03/13 09:25:20;;;;;;;12.40;7.10;;;9.70;92.60;;;;;;5076554;28;20494;-84
2022/03/13 09:27:47;;;;;;;;;;;9.80;93.80;;;;;;5092849;28;20050;-86
2022/03/13 09:30:13;;;;;;;13.75;6.65;;;9.90;92.60;;;;;;5124905;27;19919;-84
2022/03/13 09:32:40;;;;;;;11.60;7.28;;;9.90;93.30;;;;;;5074991;28;20101;-84
2022/03/13 09:35:06;;;;;;;12.85;6.95;;;10.00;91.10;;;;;;5073983;28;20180;-84
2022/03/13 09:37:32;;;;;;;;;;;10.10;92.70;;;;;;5090959;28;20048;-82
2022/03/13 09:39:58;;;;;;;10.77;6.78;;;10.20;90.80;;;;;;5092020;28;19916;-83
2022/03/13 09:42:24;;;;;;;12.38;7.53;;;10.20;92.50;;;;;;5094490;28;20043;-85
2022/03/13 09:44:51;;;;;;;12.75;7.22;;;10.30;91.90;;;;;;5050948;28;20040;-83
2022/03/13 09:47:17;;;;;;;11.35;7.47;;;10.40;92.00;;;;;;5075375;28;20075;-83
2022/03/13 09:49:43;;;;;;;11.25;6.97;;;10.50;91.80;;;;;;5072896;28;20078;-82
2022/03/13 09:52:09;;;;;;;17.42;7.70;;;10.60;91.60;;;;;;5071616;28;20044;-84
2022/03/13 09:54:35;;;;;;;11.95;7.30;;;10.70;91.00;;;;;;5046506;28;20036;-84
2022/03/13 09:57:03;;;;;;;11.25;7.15;;;10.80;91.00;;;;;;5090213;28;20043;-84
2022/03/13 09:59:29;;;;;;;9.50;7.40;;;10.90;90.70;;;;;;5072974;28;20147;-85
2022/03/13 10:01:54;;;;;;;12.57;7.07;;;11.00;88.00;;;;;;5092860;28;20135;-84
2022/03/13 10:04:20;;;;;;;12.30;7.38;;;11.00;90.10;;;;;;5078645;28;20154;-84
2022/03/13 10:07:10;;;;;;;14.02;7.30;;;11.10;88.40;;;;;;5082084;28;20223;-84
2022/03/13 10:09:38;;;;;;;12.70;7.13;;;11.20;87.80;;;;;;5079446;27;20047;-85
2022/03/13 10:12:16;;;;;;;12.63;7.68;;;11.20;88.50;;;;;;5105522;28;20035;-85
2022/03/13 10:15:05;;;;;;;11.60;7.15;;;11.30;88.60;;;;;;5093775;28;20046;-84
2022/03/13 10:17:36;;;;;;;10.85;6.70;;;11.40;86.00;;;;;;5069769;28;20044;-84
2022/03/13 10:20:27;;;;;;;12.38;7.53;;;11.50;87.40;;;;;;5092201;28;20050;-85
2022/03/13 10:22:59;;;;;;;13.57;7.75;;;11.70;86.50;;;;;;5079758;28;20071;-83
2022/03/13 10:25:34;;;;;;;11.27;6.88;;;11.80;81.00;;;;;;5078965;28;20429;-83
2022/03/13 10:28:14;;;;;;;12.55;7.40;;;11.80;84.50;;;;;;5076644;28;20083;-84
2022/03/13 10:30:41;;;;;;;12.57;7.15;;;11.80;82.90;;;;;;5080281;27;20089;-83
2022/03/13 10:33:08;;;;;;;11.20;7.22;;;11.90;85.00;;;;;;5094120;28;20051;-83
2022/03/13 10:35:37;;;;;;;12.57;7.65;;;12.00;85.40;;;;;;5077484;28;20073;-81
2022/03/13 10:38:23;;;;;;;13.18;8.13;;;12.00;82.20;;;;;;5082705;28;20050;-84
2022/03/13 10:40:56;;;;;;;14.15;7.60;;;12.10;82.20;;;;;;5096737;28;20057;-84
2022/03/13 10:43:26;;;;;;;11.32;7.30;;;12.20;83.10;;;;;;5105406;28;20075;-83
2022/03/13 10:45:53;;;;;;;13.63;7.55;;;12.20;83.20;;;;;;5092488;28;20044;-84
2022/03/13 10:48:28;;;;;;;11.70;7.63;;;12.30;84.00;;;;;;5063274;28;20104;-84
2022/03/13 10:50:56;;;;;;;11.52;7.97;;;12.40;79.60;;;;;;5083095;28;20502;-83
2022/03/13 10:53:22;;;;;;;12.63;7.55;;;12.50;81.00;;;;;;5094423;28;20057;-81
2022/03/13 10:56:10;;;;;;;13.38;7.72;;;12.60;80.80;;;;;;5112366;28;20480;-84
2022/03/13 10:58:39;;;;;;;15.45;7.85;;;12.80;81.20;;;;;;5081217;28;20039;-83
2022/03/13 11:01:19;;;;;;;15.95;8.13;;;13.00;82.00;;;;;;5095988;28;20114;-85
2022/03/13 11:03:52;;;;;;;11.48;7.38;;;13.10;81.10;;;;;;5092838;28;20040;-85
2022/03/13 11:06:19;;;;;;;14.98;7.78;;;13.20;78.50;;;;;;5096998;28;20116;-85
2022/03/13 11:08:45;;;;;;;14.80;8.10;;;13.40;81.50;;;;;;5094349;28;20036;-84
2022/03/13 11:11:15;;;;;;;13.70;8.38;;;13.50;80.80;;;;;;5086287;28;20305;-85
2022/03/13 11:13:41;;;;;;;12.95;8.02;;;13.60;79.90;;;;;;5093521;28;20039;-85
2022/03/13 11:16:10;;;;;;;12.32;7.80;;;13.70;79.90;;;;;;5087323;28;20043;-82
2022/03/13 11:18:37;;;;;;;14.32;8.43;;;13.80;78.90;;;;;;5098474;28;20059;-82
2022/03/13 11:21:06;;;;;;;11.52;7.30;;;13.90;80.00;;;;;;5094345;28;20438;-83
2022/03/13 11:23:36;;;;;;;13.27;7.95;;;14.10;78.60;;;;;;5076851;28;20039;-82
2022/03/13 11:26:04;;;;;;;13.35;8.85;;;14.30;78.40;;;;;;5089976;28;20055;-82
2022/03/13 11:28:31;;;;;;;12.57;7.85;;;14.50;78.00;;;;;;5102012;28;20032;-83
2022/03/13 11:30:58;;;;;;;16.85;8.35;;;14.60;77.90;;;;;;5077645;28;20051;-83
2022/03/13 11:33:36;;;;;;;14.07;8.40;;;14.70;72.90;;;;;;5090918;28;20048;-84
2022/03/13 11:36:31;;;;;;;11.80;7.88;;;14.80;75.20;;;;;;5075487;28;20058;-82
2022/03/13 11:39:07;;;;;;;11.45;8.38;;;14.90;74.80;;;;;;5090728;28;20430;-81
2022/03/13 11:41:39;;;;;;;12.85;8.15;;;14.90;75.10;;;;;;5100326;28;20385;-82
2022/03/13 11:44:20;;;;;;;13.32;8.90;;;15.00;75.40;;;;;;5110849;28;20054;-85
2022/03/13 11:46:51;;;;;;;14.82;7.97;;;15.00;74.70;;;;;;5101717;28;20036;-82
2022/03/13 11:49:26;;;;;;;14.00;7.68;;;15.10;76.00;;;;;;5074794;28;20459;-83
2022/03/13 11:52:10;;;;;;;12.75;8.43;;;15.20;72.50;;;;;;5104201;28;20043;-82
2022/03/13 11:54:55;;;;;;;12.80;7.95;;;15.30;74.10;;;;;;5126162;27;20063;-83
2022/03/13 11:57:23;;;;;;;10.23;7.15;;;15.30;73.60;;;;;;5092993;28;20075;-83
2022/03/13 12:00:10;;;;;;;12.65;7.78;;;15.30;74.60;;;;;;5092712;28;20096;-84
2022/03/13 12:02:46;;;;;;;12.55;7.72;;;15.40;72.80;;;;;;5090909;28;20044;-85
2022/03/13 12:05:31;;;;;;;12.90;8.48;;;15.50;74.50;;;;;;5106841;28;20048;-85
2022/03/13 12:08:12;;;;;;;13.43;8.23;;;15.60;73.60;;;;;;5097426;28;20088;-84
2022/03/13 12:10:43;;;;;;;12.00;8.40;;;15.70;73.90;;;;;;5098674;28;20046;-83
2022/03/13 12:13:20;;;;;;;13.07;7.45;;;15.70;73.60;;;;;;5107931;28;20078;-85
2022/03/13 12:15:47;;;;;;;12.15;7.35;;;15.70;72.80;;;;;;5091887;28;20051;-87
2022/03/13 12:18:24;;;;;;;16.02;8.25;;;15.70;73.50;;;;;;5099825;28;20046;-82
2022/03/13 12:20:51;;;;;;;12.15;7.32;;;15.80;73.00;;;;;;5076634;28;20051;-84
2022/03/13 12:23:34;;;;;;;15.68;8.15;;;15.90;73.90;;;;;;5092832;28;20052;-84
2022/03/13 12:26:16;;;;;;;14.13;8.00;;;15.90;73.10;;;;;;5092831;28;20061;-85
2022/03/13 12:28:42;;;;;;;13.20;8.68;;;15.90;72.80;;;;;;5103106;28;20075;-84
2022/03/13 12:31:09;;;;;;;12.27;8.27;;;15.90;74.10;;;;;;5058915;28;20133;-84
2022/03/13 12:33:54;;;;;;;14.50;8.18;;;16.00;74.00;;;;;;5095288;28;20043;-84
2022/03/13 12:36:23;;;;;;;13.13;8.20;;;16.00;71.20;;;;;;5092370;28;20173;-84
2022/03/13 12:38:53;;;;;;;13.13;7.80;;;15.90;72.50;;;;;;5088536;28;20488;-83
2022/03/13 12:41:21;;;;;;;13.65;8.68;;;15.80;72.10;;;;;;5042630;28;20434;-83
2022/03/13 12:43:57;;;;;;;12.45;8.25;;;15.80;72.20;;;;;;5093982;28;20441;-82
2022/03/13 12:46:27;;;;;;;11.98;7.32;;;15.80;71.70;;;;;;5094804;27;20051;-84
2022/03/13 12:48:56;;;;;;;15.13;9.05;;;15.90;70.70;;;;;;5102445;28;20380;-82
2022/03/13 12:51:45;;;;;;;14.52;8.07;;;15.90;70.40;;;;;;5113455;28;20047;-84
2022/03/13 12:54:23;;;;;;;12.98;7.95;;;15.90;70.20;;;;;;5080039;28;20043;-82
2022/03/13 12:56:58;;;;;;;12.43;8.07;;;16.10;71.00;;;;;;5085058;28;20048;-83